Denzil, Canada
Current Conditions -  °F | °C
As of 5:00 PM on Saturday 20 Dec 2014 (Local Time) from CYKY Reporting Station
Few Clouds Few Clouds  
Wind Chill: 25°   Ceiling: Unl
Heat Index: 25°   Visibility: 15mi
Dew Point: 23°   Wind: 3mph
Humidity: 93%   Direction: 180°S
Pressure: 29.65"   Gusts: NA
Location:  52.23°N, 109.65°W
Report Text: CYKY 202300Z 18003KT 15SM FEW080 M04/M05 A2965 RMK AC1 SLP077
Loading
Personal Weather Stations






























Interactive Weather Map New forecast layout! Learn more

10-Day Weather Forecast

Advertisements
Track Severe Weather on mobile